Time;durP1;ratioP1;P1;durP2;ratioP2;P2;SDS_P1;SDS_P2;PMS_P1;PMS_P2;Temp;Humidity;BMP_temperature;BMP_pressure;BME280_temperature;BME280_humidity;BME280_pressure;Samples;Min_cycle;Max_cycle;Signal;HPM_P1;HPM_P2
2022/06/20 00:01:57;;;;;;;3.70;2.00;;;;;;;;;;104148;1302;22489;-25
2022/06/20 00:04:35;;;;;;;2.90;2.60;;;;;;;;;;104101;1302;22651;-24
2022/06/20 00:07:13;;;;;;;2.40;1.80;;;;;;;;;;104175;1298;22827;-30
2022/06/20 00:09:50;;;;;;;5.60;1.50;;;;;;;;;;104088;1302;22616;-29
2022/06/20 00:12:28;;;;;;;1.80;1.00;;;;;;;;;;104144;1303;22501;-28
2022/06/20 00:15:06;;;;;;;1.80;1.60;;;;;;;;;;104141;1302;22496;-30
2022/06/20 00:17:43;;;;;;;8.40;1.50;;;;;;;;;;104147;1302;22498;-24
2022/06/20 00:20:21;;;;;;;4.20;1.40;;;;;;;;;;104144;1302;22761;-28
2022/06/20 00:22:58;;;;;;;2.40;1.80;;;;;;;;;;104154;1302;22496;-25
2022/06/20 00:25:36;;;;;;;4.50;1.80;;;;;;;;;;104156;1302;22619;-26
2022/06/20 00:28:14;;;;;;;2.30;1.60;;;;;;;;;;104132;1297;23745;-25
2022/06/20 00:30:51;;;;;;;2.30;1.20;;;;;;;;;;103986;1300;22641;-29
2022/06/20 00:33:28;;;;;;;1.60;1.40;;;;;;;;;;104136;1302;22504;-30
2022/06/20 00:36:06;;;;;;;15.00;1.60;;;;;;;;;;104175;1297;22490;-28
2022/06/20 00:38:44;;;;;;;3.80;1.90;;;;;;;;;;104227;1302;22718;-28
2022/06/20 00:41:24;;;;;;;3.90;2.10;;;;;;;;;;104194;1297;24912;-27
2022/06/20 00:44:01;;;;;;;3.60;2.10;;;;;;;;;;104198;1297;22809;-30
2022/06/20 00:46:41;;;;;;;4.50;2.00;;;;;;;;;;104216;1297;23546;-30
2022/06/20 00:49:22;;;;;;;2.00;1.40;;;;;;;;;;104067;1297;22623;-30
2022/06/20 00:51:59;;;;;;;2.50;1.40;;;;;;;;;;104184;1297;22763;-28
2022/06/20 00:54:38;;;;;;;7.30;2.00;;;;;;;;;;104118;1297;22582;-24
2022/06/20 00:57:20;;;;;;;4.70;1.80;;;;;;;;;;104126;1297;22770;-26
2022/06/20 01:00:00;;;;;;;6.40;1.90;;;;;;;;;;104132;1297;22725;-30
2022/06/20 01:02:40;;;;;;;3.20;1.50;;;;;;;;;;104129;1297;22621;-26
2022/06/20 01:05:21;;;;;;;2.30;1.60;;;;;;;;;;104035;1300;23944;-28
2022/06/20 01:08:00;;;;;;;4.40;1.40;;;;;;;;;;104115;1298;22644;-30
2022/06/20 01:10:41;;;;;;;2.80;1.90;;;;;;;;;;104131;1298;22727;-25
2022/06/20 01:13:20;;;;;;;3.10;1.70;;;;;;;;;;104037;1300;22509;-26
2022/06/20 01:16:06;;;;;;;1.90;1.50;;;;;;;;;;104171;1297;22731;-25
2022/06/20 01:18:45;;;;;;;3.70;1.50;;;;;;;;;;104128;1297;22753;-29
2022/06/20 01:21:23;;;;;;;6.10;1.10;;;;;;;;;;104116;1297;22516;-29
2022/06/20 01:24:05;;;;;;;3.20;1.50;;;;;;;;;;104165;1297;22496;-29
2022/06/20 01:26:46;;;;;;;1.90;1.60;;;;;;;;;;104187;1297;22514;-28
2022/06/20 01:29:23;;;;;;;3.10;1.60;;;;;;;;;;104180;1297;22641;-24
2022/06/20 01:32:01;;;;;;;1.50;1.30;;;;;;;;;;104128;1297;22496;-28
2022/06/20 01:34:38;;;;;;;3.70;1.40;;;;;;;;;;104154;1297;22611;-29
2022/06/20 01:39:59;;;;;;;1.90;1.60;;;;;;;;;;104225;1297;22632;-25
2022/06/20 01:42:36;;;;;;;3.30;2.00;;;;;;;;;;104229;1297;22724;-24
2022/06/20 01:48:00;;;;;;;3.10;2.20;;;;;;;;;;104102;1297;22840;-25
2022/06/20 01:50:37;;;;;;;2.90;1.60;;;;;;;;;;104191;1297;23019;-28
2022/06/20 01:53:15;;;;;;;3.20;2.40;;;;;;;;;;104164;1296;22623;-28
2022/06/20 01:55:53;;;;;;;3.20;2.70;;;;;;;;;;104159;1302;22499;-25
2022/06/20 01:58:34;;;;;;;2.30;1.90;;;;;;;;;;104121;1297;22512;-25
2022/06/20 02:01:11;;;;;;;3.80;2.30;;;;;;;;;;104245;1297;22591;-26
2022/06/20 02:03:49;;;;;;;4.00;2.80;;;;;;;;;;104134;1297;22852;-26
2022/06/20 02:06:26;;;;;;;7.80;1.30;;;;;;;;;;104160;1297;25023;-25
2022/06/20 02:09:04;;;;;;;4.90;1.90;;;;;;;;;;104065;1297;22505;-29
2022/06/20 02:11:42;;;;;;;2.40;2.00;;;;;;;;;;104193;1297;22499;-28
2022/06/20 02:14:20;;;;;;;2.70;2.10;;;;;;;;;;104181;1298;22486;-24
2022/06/20 02:17:00;;;;;;;2.40;1.80;;;;;;;;;;104166;1297;22738;-25
2022/06/20 02:19:39;;;;;;;2.40;2.20;;;;;;;;;;104154;1297;22517;-28
2022/06/20 02:22:17;;;;;;;3.00;2.40;;;;;;;;;;104065;1297;22620;-28
2022/06/20 02:24:56;;;;;;;2.40;1.80;;;;;;;;;;104184;1297;22639;-28
2022/06/20 02:27:35;;;;;;;4.00;2.70;;;;;;;;;;104192;1297;22504;-30
2022/06/20 02:30:13;;;;;;;2.50;2.10;;;;;;;;;;104200;1297;22889;-30
2022/06/20 02:32:52;;;;;;;3.30;2.30;;;;;;;;;;104127;1297;22498;-28
2022/06/20 02:35:29;;;;;;;4.20;2.60;;;;;;;;;;104133;1297;22504;-24
2022/06/20 02:38:07;;;;;;;4.20;2.20;;;;;;;;;;104199;1298;22632;-28
2022/06/20 02:40:44;;;;;;;3.70;1.90;;;;;;;;;;103969;1297;22510;-25
2022/06/20 02:43:24;;;;;;;1.80;1.60;;;;;;;;;;104156;1297;22606;-28
2022/06/20 02:46:02;;;;;;;2.30;2.10;;;;;;;;;;104229;1297;22615;-25
2022/06/20 02:48:40;;;;;;;2.50;1.60;;;;;;;;;;104215;1298;22688;-24
2022/06/20 02:51:20;;;;;;;3.80;2.10;;;;;;;;;;104122;1297;22494;-28
2022/06/20 02:53:58;;;;;;;5.80;2.00;;;;;;;;;;104243;1298;22493;-25
2022/06/20 02:56:38;;;;;;;5.80;2.10;;;;;;;;;;104130;1297;23988;-28
2022/06/20 02:59:17;;;;;;;5.70;2.70;;;;;;;;;;104176;1297;22508;-26
2022/06/20 03:02:00;;;;;;;2.60;2.00;;;;;;;;;;104168;1297;22728;-30
2022/06/20 03:04:39;;;;;;;2.50;2.30;;;;;;;;;;104242;1296;22695;-30
2022/06/20 03:07:18;;;;;;;2.40;2.20;;;;;;;;;;104097;1295;25949;-30
2022/06/20 03:10:00;;;;;;;6.50;2.50;;;;;;;;;;104148;1297;22617;-30
2022/06/20 03:12:37;;;;;;;6.50;2.90;;;;;;;;;;104154;1297;22613;-27
2022/06/20 03:15:15;;;;;;;4.20;2.90;;;;;;;;;;104181;1297;22502;-28
2022/06/20 03:17:52;;;;;;;8.70;3.10;;;;;;;;;;104131;1297;22504;-28
2022/06/20 03:20:29;;;;;;;3.80;3.20;;;;;;;;;;104147;1297;22532;-24
2022/06/20 03:23:08;;;;;;;5.90;3.40;;;;;;;;;;104170;1297;23463;-28
2022/06/20 03:25:46;;;;;;;2.50;2.20;;;;;;;;;;104087;1297;22632;-28
2022/06/20 03:28:23;;;;;;;2.90;2.40;;;;;;;;;;104163;1297;24976;-28
2022/06/20 03:31:01;;;;;;;10.80;3.20;;;;;;;;;;104082;1297;24224;-26
2022/06/20 03:33:38;;;;;;;3.00;2.40;;;;;;;;;;104137;1297;23516;-28
2022/06/20 03:36:19;;;;;;;4.50;2.90;;;;;;;;;;104063;1297;22508;-28
2022/06/20 03:38:56;;;;;;;4.70;3.00;;;;;;;;;;104125;1297;22496;-24
2022/06/20 03:41:34;;;;;;;5.50;2.90;;;;;;;;;;104152;1301;22728;-28
2022/06/20 03:44:15;;;;;;;4.10;3.30;;;;;;;;;;104135;1297;22495;-30
2022/06/20 03:46:54;;;;;;;4.90;2.60;;;;;;;;;;104249;1297;22499;-27
2022/06/20 03:49:33;;;;;;;4.50;2.80;;;;;;;;;;104173;1297;23336;-25
2022/06/20 03:52:13;;;;;;;8.40;3.10;;;;;;;;;;104168;1297;22613;-25
2022/06/20 03:54:51;;;;;;;14.10;4.00;;;;;;;;;;104160;1297;22522;-28
2022/06/20 03:57:30;;;;;;;3.40;2.90;;;;;;;;;;104151;1297;22626;-25
2022/06/20 04:00:11;;;;;;;4.50;3.80;;;;;;;;;;104143;1297;23575;-27
2022/06/20 04:02:50;;;;;;;4.70;2.70;;;;;;;;;;104119;1297;22489;-25
2022/06/20 04:05:30;;;;;;;5.00;4.10;;;;;;;;;;104107;1297;24441;-30
2022/06/20 04:08:12;;;;;;;8.40;3.80;;;;;;;;;;104158;1297;22489;-27
2022/06/20 04:13:32;;;;;;;14.10;6.10;;;;;;;;;;104177;1297;22505;-30
2022/06/20 04:16:13;;;;;;;7.10;5.20;;;;;;;;;;103885;1297;416298;-30
2022/06/20 04:18:51;;;;;;;12.80;5.10;;;;;;;;;;104141;1297;22615;-25
2022/06/20 04:21:30;;;;;;;5.50;4.80;;;;;;;;;;104150;1298;22628;-24
2022/06/20 04:24:12;;;;;;;20.00;6.00;;;;;;;;;;104164;1297;24233;-27
2022/06/20 04:26:49;;;;;;;14.60;5.00;;;;;;;;;;104190;1297;22495;-26
2022/06/20 04:29:30;;;;;;;10.50;6.50;;;;;;;;;;104148;1297;24903;-26
2022/06/20 04:32:08;;;;;;;20.50;7.70;;;;;;;;;;104115;1297;22477;-26
2022/06/20 04:34:47;;;;;;;9.80;6.60;;;;;;;;;;104163;1297;22502;-28
2022/06/20 04:37:28;;;;;;;13.70;8.00;;;;;;;;;;104222;1297;22619;-28
2022/06/20 04:40:10;;;;;;;14.50;7.90;;;;;;;;;;104177;1297;22722;-27
2022/06/20 04:42:50;;;;;;;12.70;7.80;;;;;;;;;;104127;1297;24223;-30
2022/06/20 04:45:31;;;;;;;21.80;9.40;;;;;;;;;;104178;1297;24207;-28
2022/06/20 04:48:12;;;;;;;13.10;7.30;;;;;;;;;;104163;1297;22866;-26
2022/06/20 04:50:50;;;;;;;14.40;8.30;;;;;;;;;;104115;1297;25117;-29
2022/06/20 04:53:29;;;;;;;13.50;6.90;;;;;;;;;;104133;1297;22496;-30
2022/06/20 04:56:07;;;;;;;8.60;7.40;;;;;;;;;;104154;1297;22491;-29
2022/06/20 04:58:47;;;;;;;14.80;6.30;;;;;;;;;;103996;1300;22600;-29
2022/06/20 05:01:25;;;;;;;9.30;7.40;;;;;;;;;;104108;1297;22805;-25
2022/06/20 05:04:06;;;;;;;18.80;8.70;;;;;;;;;;104156;1297;24285;-27
2022/06/20 05:06:43;;;;;;;14.20;7.50;;;;;;;;;;104220;1297;22513;-25
2022/06/20 05:09:23;;;;;;;15.60;7.30;;;;;;;;;;104174;1297;22499;-25
2022/06/20 05:12:00;;;;;;;10.30;7.80;;;;;;;;;;104017;1297;22889;-29
2022/06/20 05:14:41;;;;;;;21.70;8.40;;;;;;;;;;104160;1297;22622;-26
2022/06/20 05:17:20;;;;;;;14.40;10.40;;;;;;;;;;104134;1297;22783;-26
2022/06/20 05:20:00;;;;;;;15.60;10.20;;;;;;;;;;104174;1297;22685;-28
2022/06/20 05:22:38;;;;;;;12.20;8.70;;;;;;;;;;104300;1297;23853;-25
2022/06/20 05:25:17;;;;;;;13.20;11.20;;;;;;;;;;104125;1297;23545;-25
2022/06/20 05:27:56;;;;;;;17.60;9.50;;;;;;;;;;104131;1297;22891;-25
2022/06/20 05:30:34;;;;;;;11.10;9.90;;;;;;;;;;104194;1297;22527;-28
2022/06/20 05:33:18;;;;;;;10.70;7.80;;;;;;;;;;104058;1297;22502;-25
2022/06/20 05:35:57;;;;;;;13.20;7.60;;;;;;;;;;104166;1297;23017;-28
2022/06/20 05:38:37;;;;;;;21.30;7.60;;;;;;;;;;104193;1297;23742;-25
2022/06/20 05:41:14;;;;;;;18.00;10.30;;;;;;;;;;104137;1297;22506;-25
2022/06/20 05:43:52;;;;;;;12.80;7.70;;;;;;;;;;104207;1297;22641;-28
2022/06/20 05:46:33;;;;;;;14.30;10.00;;;;;;;;;;104192;1297;22747;-29
2022/06/20 05:49:12;;;;;;;15.10;9.40;;;;;;;;;;104069;1297;22490;-24
2022/06/20 05:51:49;;;;;;;13.90;8.50;;;;;;;;;;104086;1300;22596;-28
2022/06/20 05:54:28;;;;;;;9.70;6.90;;;;;;;;;;104144;1297;24281;-26
2022/06/20 05:57:07;;;;;;;9.80;7.30;;;;;;;;;;103879;1300;22657;-30
2022/06/20 05:59:46;;;;;;;16.40;7.20;;;;;;;;;;104124;1297;22631;-26
2022/06/20 06:02:27;;;;;;;16.80;7.70;;;;;;;;;;104188;1297;22621;-30
2022/06/20 06:05:07;;;;;;;9.80;7.60;;;;;;;;;;104203;1297;22509;-30
2022/06/20 06:07:47;;;;;;;7.50;6.10;;;;;;;;;;104449;1297;24114;-28
2022/06/20 06:10:28;;;;;;;15.10;5.90;;;;;;;;;;104045;1300;23895;-24
2022/06/20 06:13:18;;;;;;;11.80;6.20;;;;;;;;;;104155;1297;22501;-26
2022/06/20 06:18:39;;;;;;;13.70;6.60;;;;;;;;;;104132;1297;22495;-28
2022/06/20 06:21:16;;;;;;;12.10;6.70;;;;;;;;;;104183;1297;24367;-24
2022/06/20 06:23:54;;;;;;;9.20;5.90;;;;;;;;;;104156;1297;22504;-28
2022/06/20 06:26:31;;;;;;;17.80;6.40;;;;;;;;;;104163;1297;22623;-28
2022/06/20 06:29:13;;;;;;;8.20;5.40;;;;;;;;;;104171;1297;23243;-28
2022/06/20 06:31:52;;;;;;;10.50;5.90;;;;;;;;;;104197;1297;22808;-28
2022/06/20 06:34:30;;;;;;;10.10;5.90;;;;;;;;;;104193;1297;23077;-25
2022/06/20 06:37:09;;;;;;;8.90;5.10;;;;;;;;;;104129;1297;22495;-28
2022/06/20 06:39:50;;;;;;;9.80;5.50;;;;;;;;;;104098;1297;24351;-25
2022/06/20 06:42:27;;;;;;;9.10;6.60;;;;;;;;;;104045;1300;22506;-28
2022/06/20 06:45:05;;;;;;;14.60;5.80;;;;;;;;;;104173;1297;22498;-29
2022/06/20 06:47:44;;;;;;;15.60;6.50;;;;;;;;;;104004;1300;22502;-29
2022/06/20 06:50:26;;;;;;;10.70;5.40;;;;;;;;;;104158;1297;22508;-29
2022/06/20 06:53:05;;;;;;;19.20;5.30;;;;;;;;;;104216;1297;22498;-29
2022/06/20 06:55:44;;;;;;;11.70;6.70;;;;;;;;;;104145;1297;24181;-23
2022/06/20 06:58:23;;;;;;;9.90;6.20;;;;;;;;;;104125;1297;22593;-24
2022/06/20 07:01:06;;;;;;;10.40;5.50;;;;;;;;;;103941;1297;22498;-26
2022/06/20 07:03:47;;;;;;;6.70;5.80;;;;;;;;;;104167;1297;22493;-25
2022/06/20 07:06:25;;;;;;;11.40;4.70;;;;;;;;;;104126;1297;22754;-26
2022/06/20 07:09:08;;;;;;;10.80;5.60;;;;;;;;;;104153;1297;22501;-26
2022/06/20 07:11:49;;;;;;;17.30;5.40;;;;;;;;;;104164;1297;24240;-29
2022/06/20 07:14:26;;;;;;;8.60;5.10;;;;;;;;;;104053;1297;22493;-25
2022/06/20 07:17:07;;;;;;;9.70;5.40;;;;;;;;;;104168;1297;22486;-25
2022/06/20 07:19:45;;;;;;;13.00;5.90;;;;;;;;;;103943;1297;24288;-25
2022/06/20 07:22:23;;;;;;;12.70;4.40;;;;;;;;;;104142;1297;22744;-25
2022/06/20 07:25:01;;;;;;;23.60;4.20;;;;;;;;;;104162;1297;22757;-29
2022/06/20 07:27:40;;;;;;;4.30;3.50;;;;;;;;;;104074;1297;22507;-28
2022/06/20 07:30:19;;;;;;;8.10;4.40;;;;;;;;;;104165;1297;22502;-28
2022/06/20 07:32:58;;;;;;;6.40;3.70;;;;;;;;;;104205;1297;22505;-27
2022/06/20 07:35:38;;;;;;;12.10;3.60;;;;;;;;;;104181;1297;22502;-25
2022/06/20 07:38:17;;;;;;;8.80;4.30;;;;;;;;;;104204;1297;22685;-25
2022/06/20 07:40:58;;;;;;;6.00;3.10;;;;;;;;;;104020;1297;22833;-25
2022/06/20 07:43:37;;;;;;;8.90;4.00;;;;;;;;;;104204;1297;26160;-26
2022/06/20 07:46:17;;;;;;;9.20;3.40;;;;;;;;;;104161;1297;22869;-25
2022/06/20 07:48:56;;;;;;;7.50;4.00;;;;;;;;;;104137;1297;22623;-24
2022/06/20 07:51:35;;;;;;;4.10;3.10;;;;;;;;;;104095;1297;22504;-28
2022/06/20 07:54:13;;;;;;;5.60;3.70;;;;;;;;;;104166;1296;22922;-24
2022/06/20 07:56:51;;;;;;;3.30;2.60;;;;;;;;;;104188;1297;22490;-28
2022/06/20 07:59:31;;;;;;;13.70;3.30;;;;;;;;;;104168;1297;22502;-24
2022/06/20 08:02:11;;;;;;;12.30;3.10;;;;;;;;;;104148;1297;22584;-26
2022/06/20 08:04:49;;;;;;;10.20;3.30;;;;;;;;;;104200;1297;22493;-24
2022/06/20 08:07:29;;;;;;;15.40;3.10;;;;;;;;;;104198;1297;22493;-24
2022/06/20 08:10:07;;;;;;;11.90;3.50;;;;;;;;;;104013;1300;22722;-28
2022/06/20 08:12:48;;;;;;;6.70;3.20;;;;;;;;;;103991;1297;24220;-28
2022/06/20 08:15:28;;;;;;;10.00;2.90;;;;;;;;;;104202;1297;22482;-28
2022/06/20 08:18:06;;;;;;;4.20;2.50;;;;;;;;;;104197;1297;24316;-24
2022/06/20 08:20:44;;;;;;;15.80;3.10;;;;;;;;;;104094;1297;23544;-29
2022/06/20 08:23:30;;;;;;;5.00;2.40;;;;;;;;;;104114;1297;22610;-29
2022/06/20 08:26:08;;;;;;;8.60;2.90;;;;;;;;;;104223;1297;22486;-25
2022/06/20 08:28:50;;;;;;;4.00;2.00;;;;;;;;;;104228;1297;22751;-25
2022/06/20 08:31:29;;;;;;;5.70;2.60;;;;;;;;;;104185;1297;22499;-28
2022/06/20 08:34:16;;;;;;;4.00;1.80;;;;;;;;;;103989;1300;22765;-28
2022/06/20 08:36:57;;;;;;;5.40;2.10;;;;;;;;;;104186;1297;22747;-24
2022/06/20 08:39:38;;;;;;;8.20;2.80;;;;;;;;;;104188;1297;25882;-28
2022/06/20 08:42:19;;;;;;;3.60;2.20;;;;;;;;;;104167;1297;22625;-25
2022/06/20 08:45:09;;;;;;;9.20;2.20;;;;;;;;;;104186;1297;22777;-28
2022/06/20 08:47:58;;;;;;;7.80;2.50;;;;;;;;;;104324;1297;22498;-29
2022/06/20 08:50:40;;;;;;;12.40;2.50;;;;;;;;;;104129;1297;24160;-29
2022/06/20 08:53:22;;;;;;;22.20;3.20;;;;;;;;;;104131;1297;23747;-28
2022/06/20 08:56:03;;;;;;;18.30;2.30;;;;;;;;;;104171;1297;22801;-29
2022/06/20 08:58:40;;;;;;;3.40;2.10;;;;;;;;;;104216;1297;22514;-28
2022/06/20 09:01:24;;;;;;;10.20;2.00;;;;;;;;;;104121;1297;22721;-24
2022/06/20 09:04:04;;;;;;;8.90;1.80;;;;;;;;;;104116;1297;24275;-28
2022/06/20 09:06:53;;;;;;;4.30;2.00;;;;;;;;;;104230;1297;22626;-24
2022/06/20 09:09:43;;;;;;;9.10;2.10;;;;;;;;;;104129;1297;22661;-28
2022/06/20 09:12:32;;;;;;;8.00;1.70;;;;;;;;;;104148;1297;22841;-28
2022/06/20 09:15:22;;;;;;;8.10;2.20;;;;;;;;;;104130;1297;22948;-28
2022/06/20 09:18:02;;;;;;;4.30;1.80;;;;;;;;;;104186;1297;22637;-28
2022/06/20 09:20:52;;;;;;;6.80;2.10;;;;;;;;;;104125;1297;22679;-24
2022/06/20 09:23:40;;;;;;;6.50;1.70;;;;;;;;;;104165;1297;22843;-28
2022/06/20 09:26:23;;;;;;;6.10;1.90;;;;;;;;;;104075;1297;22492;-28
2022/06/20 09:29:01;;;;;;;4.30;1.50;;;;;;;;;;104147;1297;22496;-28
2022/06/20 09:31:39;;;;;;;3.90;1.20;;;;;;;;;;104196;1297;22622;-25
2022/06/20 09:34:20;;;;;;;4.30;1.30;;;;;;;;;;104235;1297;22504;-24
2022/06/20 09:37:04;;;;;;;10.00;2.10;;;;;;;;;;104188;1297;23704;-28
2022/06/20 09:39:48;;;;;;;8.90;2.60;;;;;;;;;;104154;1297;23550;-24
2022/06/20 09:42:28;;;;;;;4.50;2.30;;;;;;;;;;104171;1297;26292;-24
2022/06/20 09:45:06;;;;;;;6.10;1.30;;;;;;;;;;104136;1297;22496;-24
2022/06/20 09:47:50;;;;;;;2.80;2.00;;;;;;;;;;104185;1297;24204;-27
2022/06/20 09:50:31;;;;;;;5.40;2.00;;;;;;;;;;104159;1297;22619;-24
2022/06/20 09:53:12;;;;;;;6.20;2.60;;;;;;;;;;104183;1296;22504;-28
2022/06/20 09:55:53;;;;;;;8.50;2.40;;;;;;;;;;104235;1297;22504;-23
2022/06/20 09:58:33;;;;;;;3.50;2.60;;;;;;;;;;104220;1297;22498;-24
2022/06/20 10:01:23;;;;;;;6.70;3.20;;;;;;;;;;104075;1297;23543;-28
2022/06/20 10:04:12;;;;;;;12.40;3.00;;;;;;;;;;104257;1297;23747;-28
2022/06/20 10:06:55;;;;;;;26.20;3.90;;;;;;;;;;104182;1297;23064;-28
2022/06/20 10:09:33;;;;;;;;;;;;;;;;;;104196;1297;24203;-30
2022/06/20 10:12:17;;;;;;;6.00;2.30;;;;;;;;;;104164;1297;22761;-28
2022/06/20 10:14:54;;;;;;;7.80;3.70;;;;;;;;;;104161;1297;22493;-25
2022/06/20 10:17:37;;;;;;;4.00;3.00;;;;;;;;;;104343;1297;22635;-28
2022/06/20 10:20:16;;;;;;;3.90;2.80;;;;;;;;;;104167;1297;22997;-29
2022/06/20 10:22:57;;;;;;;4.40;3.40;;;;;;;;;;104187;1296;22498;-25
2022/06/20 10:25:35;;;;;;;28.70;5.10;;;;;;;;;;104118;1297;22498;-28
2022/06/20 10:28:14;;;;;;;7.80;4.70;;;;;;;;;;103961;1298;22498;-24
2022/06/20 10:30:55;;;;;;;13.60;4.20;;;;;;;;;;104147;1297;22865;-28
2022/06/20 10:33:33;;;;;;;3.70;2.80;;;;;;;;;;104097;1297;22626;-28
2022/06/20 10:36:13;;;;;;;11.80;3.00;;;;;;;;;;104097;1297;22642;-27
2022/06/20 10:38:51;;;;;;;8.50;4.10;;;;;;;;;;104104;1297;22510;-27
2022/06/20 10:41:33;;;;;;;4.10;3.60;;;;;;;;;;104121;1297;22487;-25
2022/06/20 10:44:14;;;;;;;2.40;2.10;;;;;;;;;;104293;1297;22617;-29
2022/06/20 10:47:03;;;;;;;5.20;3.60;;;;;;;;;;104206;1297;22498;-28
2022/06/20 10:49:46;;;;;;;9.80;6.10;;;;;;;;;;103984;1300;22509;-30
2022/06/20 10:52:36;;;;;;;10.90;5.20;;;;;;;;;;104190;1297;22792;-24
2022/06/20 10:55:16;;;;;;;13.30;4.90;;;;;;;;;;104169;1297;22513;-29
2022/06/20 10:58:06;;;;;;;10.40;3.50;;;;;;;;;;104181;1297;22496;-24
2022/06/20 11:00:47;;;;;;;20.70;5.50;;;;;;;;;;104178;1297;22629;-30
2022/06/20 11:03:25;;;;;;;5.40;3.60;;;;;;;;;;104137;1297;22628;-30
2022/06/20 11:06:08;;;;;;;5.50;3.30;;;;;;;;;;104118;1297;22632;-30
2022/06/20 11:08:48;;;;;;;5.90;3.20;;;;;;;;;;104018;1297;23592;-30
2022/06/20 11:11:29;;;;;;;10.60;2.70;;;;;;;;;;104153;1297;22489;-25
2022/06/20 11:14:18;;;;;;;6.50;3.20;;;;;;;;;;104208;1297;22499;-29
2022/06/20 11:17:00;;;;;;;8.50;3.10;;;;;;;;;;104129;1297;22667;-29
2022/06/20 11:19:50;;;;;;;12.20;2.80;;;;;;;;;;104184;1297;22841;-30
2022/06/20 11:22:30;;;;;;;6.70;2.50;;;;;;;;;;104153;1296;22765;-29
2022/06/20 11:25:20;;;;;;;5.50;2.90;;;;;;;;;;104079;1297;22492;-24
2022/06/20 11:27:57;;;;;;;8.00;2.90;;;;;;;;;;104111;1297;22518;-29
2022/06/20 11:30:35;;;;;;;4.30;1.90;;;;;;;;;;104137;1297;23549;-29
2022/06/20 11:34:00;;;;;;;4.50;1.70;;;;;;;;;;104008;1300;22601;-31
2022/06/20 11:36:26;;;;;;;5.30;1.80;;;;;;;;;;104186;1296;22521;-26
2022/06/20 11:39:07;;;;;;;1.50;1.10;;;;;;;;;;103996;1298;23758;-26
2022/06/20 11:41:44;;;;;;;7.20;3.50;;;;;;;;;;104112;1297;22508;-24
2022/06/20 11:44:23;;;;;;;3.80;3.00;;;;;;;;;;104170;1297;22507;-29
2022/06/20 11:47:13;;;;;;;3.80;2.50;;;;;;;;;;104134;1297;22502;-29
2022/06/20 11:50:02;;;;;;;13.30;4.50;;;;;;;;;;104141;1297;22597;-23
2022/06/20 11:52:52;;;;;;;4.20;2.40;;;;;;;;;;104157;1302;24269;-24
2022/06/20 11:55:29;;;;;;;7.30;3.30;;;;;;;;;;104095;1297;22492;-29
2022/06/20 11:58:12;;;;;;;5.50;2.90;;;;;;;;;;104177;1297;22495;-31
2022/06/20 12:00:52;;;;;;;2.00;1.20;;;;;;;;;;104139;1297;22500;-29
2022/06/20 12:03:30;;;;;;;5.20;1.40;;;;;;;;;;104095;1297;22502;-25
2022/06/20 12:06:09;;;;;;;4.20;1.30;;;;;;;;;;104149;1297;22508;-24
2022/06/20 12:08:50;;;;;;;2.40;1.40;;;;;;;;;;104156;1297;22497;-30
2022/06/20 12:11:28;;;;;;;4.10;1.70;;;;;;;;;;104170;1297;24201;-25
2022/06/20 12:14:08;;;;;;;4.90;2.40;;;;;;;;;;104126;1297;22608;-29
2022/06/20 12:16:49;;;;;;;3.30;1.80;;;;;;;;;;103965;1297;348850;-31
2022/06/20 12:24:51;;;;;;;3.20;1.70;;;;;;;;;;104045;1300;24246;-25
2022/06/20 12:27:29;;;;;;;14.50;10.60;;;;;;;;;;104132;1297;22510;-29
2022/06/20 12:30:11;;;;;;;7.60;5.90;;;;;;;;;;104082;1300;22625;-25
2022/06/20 12:32:49;;;;;;;48.10;30.60;;;;;;;;;;104005;1300;23954;-30
2022/06/20 12:35:30;;;;;;;35.50;27.50;;;;;;;;;;104169;1297;22623;-29
2022/06/20 12:38:10;;;;;;;7.80;5.70;;;;;;;;;;104216;1297;23754;-25
2022/06/20 12:40:49;;;;;;;6.60;6.10;;;;;;;;;;104245;1297;23536;-29
2022/06/20 12:43:28;;;;;;;7.90;3.60;;;;;;;;;;104244;1297;24944;-30
2022/06/20 12:46:10;;;;;;;3.70;2.50;;;;;;;;;;104085;1297;23812;-31
2022/06/20 12:49:07;;;;;;;3.20;2.00;;;;;;;;;;104141;1297;23561;-27
2022/06/20 12:51:48;;;;;;;3.40;1.70;;;;;;;;;;104105;1297;22498;-27
2022/06/20 12:54:29;;;;;;;6.50;2.80;;;;;;;;;;104043;1297;25348;-31
2022/06/20 12:57:10;;;;;;;4.90;2.30;;;;;;;;;;104182;1297;22514;-27
2022/06/20 13:00:00;;;;;;;6.10;2.00;;;;;;;;;;104190;1297;22648;-28
2022/06/20 13:02:57;;;;;;;5.90;3.00;;;;;;;;;;104156;1297;22492;-25
2022/06/20 13:05:35;;;;;;;9.60;3.40;;;;;;;;;;104177;1297;22556;-29
2022/06/20 13:08:12;;;;;;;8.20;3.10;;;;;;;;;;104125;1297;22503;-30
2022/06/20 13:10:52;;;;;;;9.90;3.00;;;;;;;;;;104060;1297;22495;-25
2022/06/20 13:13:29;;;;;;;4.40;3.60;;;;;;;;;;104081;1297;22626;-33
2022/06/20 13:16:12;;;;;;;5.80;4.20;;;;;;;;;;104178;1301;22620;-28
2022/06/20 13:18:57;;;;;;;9.20;4.30;;;;;;;;;;104136;1297;22720;-28
2022/06/20 13:21:34;;;;;;;;;;;;;;;;;;104096;1297;22746;-29
2022/06/20 13:24:20;;;;;;;6.00;3.80;;;;;;;;;;103976;1300;23173;-29
2022/06/20 13:27:05;;;;;;;6.40;4.20;;;;;;;;;;104146;1297;22507;-29
2022/06/20 13:29:47;;;;;;;5.90;3.90;;;;;;;;;;104231;1297;22507;-25
2022/06/20 13:32:25;;;;;;;14.20;3.80;;;;;;;;;;104231;1297;23712;-25
2022/06/20 13:35:06;;;;;;;7.90;4.60;;;;;;;;;;104100;1297;24214;-29
2022/06/20 13:37:46;;;;;;;13.30;5.40;;;;;;;;;;104376;1297;22689;-28
2022/06/20 13:40:25;;;;;;;9.60;6.70;;;;;;;;;;104180;1297;22498;-29
2022/06/20 13:43:02;;;;;;;12.50;5.40;;;;;;;;;;104132;1297;23914;-25
2022/06/20 13:45:43;;;;;;;6.80;6.00;;;;;;;;;;104123;1297;24221;-25
2022/06/20 13:48:23;;;;;;;7.00;6.00;;;;;;;;;;104203;1297;22502;-29
2022/06/20 13:51:07;;;;;;;13.50;8.80;;;;;;;;;;104310;1297;22610;-31
2022/06/20 13:53:48;;;;;;;8.10;6.50;;;;;;;;;;104069;1297;22798;-25
2022/06/20 13:56:26;;;;;;;10.80;5.70;;;;;;;;;;104148;1297;25405;-30
2022/06/20 13:59:05;;;;;;;7.50;6.70;;;;;;;;;;104077;1297;24126;-29
2022/06/20 14:01:54;;;;;;;5.20;4.50;;;;;;;;;;104057;1297;22511;-28
2022/06/20 14:04:32;;;;;;;6.70;4.40;;;;;;;;;;104125;1297;22504;-31
2022/06/20 14:07:09;;;;;;;5.00;4.40;;;;;;;;;;104132;1297;22863;-27
2022/06/20 14:09:50;;;;;;;6.90;6.00;;;;;;;;;;104199;1297;22500;-27
2022/06/20 14:12:30;;;;;;;8.30;5.70;;;;;;;;;;104055;1297;22513;-31
2022/06/20 14:15:08;;;;;;;13.60;7.70;;;;;;;;;;104195;1297;22502;-31
2022/06/20 14:17:49;;;;;;;13.00;4.60;;;;;;;;;;104196;1297;22496;-27
2022/06/20 14:20:28;;;;;;;6.30;4.00;;;;;;;;;;104193;1297;22495;-31
2022/06/20 14:23:05;;;;;;;7.50;4.50;;;;;;;;;;104187;1297;22789;-31
2022/06/20 14:25:43;;;;;;;7.40;4.40;;;;;;;;;;104202;1297;22507;-27
2022/06/20 14:28:24;;;;;;;6.40;3.70;;;;;;;;;;104118;1297;23459;-30
2022/06/20 14:31:04;;;;;;;4.80;4.40;;;;;;;;;;104182;1297;22495;-27
2022/06/20 14:33:42;;;;;;;5.50;4.20;;;;;;;;;;104066;1297;24221;-25
2022/06/20 14:36:20;;;;;;;8.10;5.00;;;;;;;;;;104092;1297;24197;-29
2022/06/20 14:39:01;;;;;;;8.80;4.50;;;;;;;;;;104179;1297;22496;-29
2022/06/20 14:41:42;;;;;;;8.30;4.20;;;;;;;;;;104222;1297;24232;-25
2022/06/20 14:44:22;;;;;;;18.90;7.40;;;;;;;;;;104200;1297;22873;-27
2022/06/20 14:47:04;;;;;;;21.90;8.20;;;;;;;;;;104190;1297;22576;-29
2022/06/20 14:49:46;;;;;;;10.70;5.80;;;;;;;;;;104174;1296;22511;-29
2022/06/20 14:52:26;;;;;;;17.30;7.30;;;;;;;;;;104194;1297;22499;-29
2022/06/20 14:55:12;;;;;;;7.30;5.10;;;;;;;;;;104107;1300;23864;-25
2022/06/20 14:57:52;;;;;;;7.60;4.60;;;;;;;;;;104138;1297;22510;-29
2022/06/20 15:00:32;;;;;;;5.80;3.80;;;;;;;;;;103886;1297;22969;-25
2022/06/20 15:03:13;;;;;;;4.10;2.90;;;;;;;;;;104143;1302;22498;-25
2022/06/20 15:05:54;;;;;;;10.40;4.50;;;;;;;;;;104117;1297;22625;-25
2022/06/20 15:08:33;;;;;;;14.80;5.90;;;;;;;;;;104049;1297;22632;-25
2022/06/20 15:11:14;;;;;;;6.30;3.40;;;;;;;;;;104193;1297;23587;-29
2022/06/20 15:13:54;;;;;;;8.30;5.80;;;;;;;;;;103985;1296;23822;-31
2022/06/20 15:16:32;;;;;;;12.50;6.30;;;;;;;;;;104077;1297;22718;-25
2022/06/20 15:19:14;;;;;;;10.80;5.30;;;;;;;;;;104017;1300;22632;-25
2022/06/20 15:21:52;;;;;;;10.70;4.30;;;;;;;;;;104092;1300;22505;-28
2022/06/20 15:24:33;;;;;;;11.30;4.30;;;;;;;;;;104166;1297;22500;-29
2022/06/20 15:27:14;;;;;;;5.00;3.10;;;;;;;;;;104210;1297;22508;-25
2022/06/20 15:29:52;;;;;;;5.80;3.70;;;;;;;;;;104210;1297;22508;-25
2022/06/20 15:32:29;;;;;;;6.90;4.00;;;;;;;;;;104137;1297;22843;-25
2022/06/20 15:35:20;;;;;;;5.70;3.20;;;;;;;;;;104144;1297;23879;-29
2022/06/20 15:37:57;;;;;;;5.90;3.70;;;;;;;;;;104150;1297;22500;-29
2022/06/20 15:40:35;;;;;;;7.70;4.30;;;;;;;;;;104111;1297;22862;-29
2022/06/20 15:43:16;;;;;;;10.00;3.00;;;;;;;;;;104131;1297;22496;-27
2022/06/20 15:45:55;;;;;;;5.00;3.50;;;;;;;;;;104138;1298;22487;-25
2022/06/20 15:48:34;;;;;;;3.60;3.20;;;;;;;;;;104095;1297;22885;-29
2022/06/20 15:51:14;;;;;;;6.70;3.60;;;;;;;;;;104013;1300;22497;-29
2022/06/20 15:53:52;;;;;;;5.10;2.80;;;;;;;;;;104090;1297;23150;-23
2022/06/20 15:56:33;;;;;;;4.30;3.30;;;;;;;;;;104154;1297;22772;-29
2022/06/20 15:59:30;;;;;;;4.70;4.30;;;;;;;;;;104138;1297;22511;-29